sensor_id;sensor_type;location;lat;lon;timestamp;P1;durP1;ratioP1;P2;durP2;ratioP2
14342;SDS011;7255;53.596;9.960;2023-06-26T00:01:23;9.20;;;8.15;;
14342;SDS011;7255;53.596;9.960;2023-06-26T00:03:49;9.45;;;8.50;;
14342;SDS011;7255;53.596;9.960;2023-06-26T00:06:16;9.07;;;8.18;;
14342;SDS011;7255;53.596;9.960;2023-06-26T00:08:42;9.93;;;9.02;;
14342;SDS011;7255;53.596;9.960;2023-06-26T00:11:08;9.50;;;7.97;;
14342;SDS011;7255;53.596;9.960;2023-06-26T00:13:36;9.68;;;8.38;;
14342;SDS011;7255;53.596;9.960;2023-06-26T00:16:02;10.75;;;9.15;;
14342;SDS011;7255;53.596;9.960;2023-06-26T00:18:29;9.80;;;8.80;;
14342;SDS011;7255;53.596;9.960;2023-06-26T00:20:55;10.73;;;8.80;;
14342;SDS011;7255;53.596;9.960;2023-06-26T00:23:22;9.27;;;8.38;;
14342;SDS011;7255;53.596;9.960;2023-06-26T00:25:48;9.05;;;8.25;;
14342;SDS011;7255;53.596;9.960;2023-06-26T00:28:14;9.63;;;8.65;;
14342;SDS011;7255;53.596;9.960;2023-06-26T00:30:42;9.95;;;9.05;;
14342;SDS011;7255;53.596;9.960;2023-06-26T00:33:08;9.95;;;9.02;;
14342;SDS011;7255;53.596;9.960;2023-06-26T00:35:35;9.52;;;8.52;;
14342;SDS011;7255;53.596;9.960;2023-06-26T00:38:01;10.88;;;8.93;;
14342;SDS011;7255;53.596;9.960;2023-06-26T00:40:27;11.32;;;8.48;;
14342;SDS011;7255;53.596;9.960;2023-06-26T00:42:54;9.50;;;8.60;;
14342;SDS011;7255;53.596;9.960;2023-06-26T00:45:20;9.98;;;8.98;;
14342;SDS011;7255;53.596;9.960;2023-06-26T00:47:48;10.35;;;9.05;;
14342;SDS011;7255;53.596;9.960;2023-06-26T00:50:14;9.82;;;8.82;;
14342;SDS011;7255;53.596;9.960;2023-06-26T00:52:42;9.38;;;8.48;;
14342;SDS011;7255;53.596;9.960;2023-06-26T00:55:09;10.40;;;9.27;;
14342;SDS011;7255;53.596;9.960;2023-06-26T00:57:35;9.50;;;8.50;;
14342;SDS011;7255;53.596;9.960;2023-06-26T01:00:03;9.93;;;8.57;;
14342;SDS011;7255;53.596;9.960;2023-06-26T01:02:30;9.75;;;8.75;;
14342;SDS011;7255;53.596;9.960;2023-06-26T01:05:00;9.05;;;8.15;;
14342;SDS011;7255;53.596;9.960;2023-06-26T01:07:31;10.60;;;9.60;;
14342;SDS011;7255;53.596;9.960;2023-06-26T01:10:01;10.45;;;9.38;;
14342;SDS011;7255;53.596;9.960;2023-06-26T01:12:29;10.35;;;9.05;;
14342;SDS011;7255;53.596;9.960;2023-06-26T01:14:56;9.55;;;8.63;;
14342;SDS011;7255;53.596;9.960;2023-06-26T01:17:22;10.40;;;8.70;;
14342;SDS011;7255;53.596;9.960;2023-06-26T01:19:49;10.68;;;9.75;;
14342;SDS011;7255;53.596;9.960;2023-06-26T01:22:19;10.45;;;9.40;;
14342;SDS011;7255;53.596;9.960;2023-06-26T01:24:54;10.60;;;9.55;;
14342;SDS011;7255;53.596;9.960;2023-06-26T01:27:29;10.23;;;9.30;;
14342;SDS011;7255;53.596;9.960;2023-06-26T01:29:58;10.20;;;9.30;;
14342;SDS011;7255;53.596;9.960;2023-06-26T01:32:28;10.20;;;9.10;;
14342;SDS011;7255;53.596;9.960;2023-06-26T01:34:55;9.88;;;8.98;;
14342;SDS011;7255;53.596;9.960;2023-06-26T01:37:23;10.38;;;9.27;;
14342;SDS011;7255;53.596;9.960;2023-06-26T01:39:49;9.35;;;8.52;;
14342;SDS011;7255;53.596;9.960;2023-06-26T01:42:15;10.25;;;8.95;;
14342;SDS011;7255;53.596;9.960;2023-06-26T01:44:44;9.60;;;8.63;;
14342;SDS011;7255;53.596;9.960;2023-06-26T01:47:14;12.57;;;10.57;;
14342;SDS011;7255;53.596;9.960;2023-06-26T01:49:46;9.98;;;9.07;;
14342;SDS011;7255;53.596;9.960;2023-06-26T01:52:17;10.70;;;9.70;;
14342;SDS011;7255;53.596;9.960;2023-06-26T01:54:48;10.57;;;9.50;;
14342;SDS011;7255;53.596;9.960;2023-06-26T01:57:20;9.23;;;8.35;;
14342;SDS011;7255;53.596;9.960;2023-06-26T01:59:49;10.02;;;9.02;;
14342;SDS011;7255;53.596;9.960;2023-06-26T02:02:17;10.38;;;9.30;;
14342;SDS011;7255;53.596;9.960;2023-06-26T02:04:43;10.05;;;9.05;;
14342;SDS011;7255;53.596;9.960;2023-06-26T02:07:13;10.77;;;9.80;;
14342;SDS011;7255;53.596;9.960;2023-06-26T02:09:39;10.63;;;9.52;;
14342;SDS011;7255;53.596;9.960;2023-06-26T02:12:06;10.30;;;9.30;;
14342;SDS011;7255;53.596;9.960;2023-06-26T02:14:33;9.38;;;8.48;;
14342;SDS011;7255;53.596;9.960;2023-06-26T02:17:00;9.77;;;8.88;;
14342;SDS011;7255;53.596;9.960;2023-06-26T02:19:27;11.07;;;9.98;;
14342;SDS011;7255;53.596;9.960;2023-06-26T02:21:53;10.60;;;9.48;;
14342;SDS011;7255;53.596;9.960;2023-06-26T02:24:19;10.07;;;9.07;;
14342;SDS011;7255;53.596;9.960;2023-06-26T02:26:46;10.57;;;9.38;;
14342;SDS011;7255;53.596;9.960;2023-06-26T02:29:14;10.48;;;9.48;;
14342;SDS011;7255;53.596;9.960;2023-06-26T02:31:40;12.00;;;9.10;;
14342;SDS011;7255;53.596;9.960;2023-06-26T02:34:08;10.80;;;9.77;;
14342;SDS011;7255;53.596;9.960;2023-06-26T02:36:34;10.45;;;9.45;;
14342;SDS011;7255;53.596;9.960;2023-06-26T02:39:00;11.25;;;10.15;;
14342;SDS011;7255;53.596;9.960;2023-06-26T02:41:27;9.98;;;9.10;;
14342;SDS011;7255;53.596;9.960;2023-06-26T02:43:53;10.20;;;9.20;;
14342;SDS011;7255;53.596;9.960;2023-06-26T02:46:19;11.12;;;9.52;;
14342;SDS011;7255;53.596;9.960;2023-06-26T02:48:45;10.63;;;9.55;;
14342;SDS011;7255;53.596;9.960;2023-06-26T02:51:13;10.35;;;9.35;;
14342;SDS011;7255;53.596;9.960;2023-06-26T02:53:39;11.45;;;9.68;;
14342;SDS011;7255;53.596;9.960;2023-06-26T02:56:06;10.77;;;9.68;;
14342;SDS011;7255;53.596;9.960;2023-06-26T02:58:32;9.55;;;8.65;;
14342;SDS011;7255;53.596;9.960;2023-06-26T03:00:58;10.00;;;9.10;;
14342;SDS011;7255;53.596;9.960;2023-06-26T03:03:25;10.30;;;9.30;;
14342;SDS011;7255;53.596;9.960;2023-06-26T03:05:51;10.30;;;9.30;;
14342;SDS011;7255;53.596;9.960;2023-06-26T03:08:19;10.07;;;9.02;;
14342;SDS011;7255;53.596;9.960;2023-06-26T03:10:45;9.13;;;8.32;;
14342;SDS011;7255;53.596;9.960;2023-06-26T03:13:11;9.55;;;8.60;;
14342;SDS011;7255;53.596;9.960;2023-06-26T03:15:37;9.35;;;8.40;;
14342;SDS011;7255;53.596;9.960;2023-06-26T03:18:04;9.07;;;8.18;;
14342;SDS011;7255;53.596;9.960;2023-06-26T03:20:30;9.32;;;8.30;;
14342;SDS011;7255;53.596;9.960;2023-06-26T03:22:56;9.75;;;8.77;;
14342;SDS011;7255;53.596;9.960;2023-06-26T03:25:24;8.85;;;8.02;;
14342;SDS011;7255;53.596;9.960;2023-06-26T03:27:50;8.48;;;7.68;;
14342;SDS011;7255;53.596;9.960;2023-06-26T03:30:17;8.48;;;7.68;;
14342;SDS011;7255;53.596;9.960;2023-06-26T03:32:43;8.18;;;7.37;;
14342;SDS011;7255;53.596;9.960;2023-06-26T03:35:09;9.45;;;8.10;;
14342;SDS011;7255;53.596;9.960;2023-06-26T03:37:35;8.80;;;7.62;;
14342;SDS011;7255;53.596;9.960;2023-06-26T03:40:02;8.80;;;8.00;;
14342;SDS011;7255;53.596;9.960;2023-06-26T03:42:30;9.80;;;8.27;;
14342;SDS011;7255;53.596;9.960;2023-06-26T03:44:57;9.48;;;8.30;;
14342;SDS011;7255;53.596;9.960;2023-06-26T03:47:23;10.25;;;7.68;;
14342;SDS011;7255;53.596;9.960;2023-06-26T03:49:50;8.85;;;7.87;;
14342;SDS011;7255;53.596;9.960;2023-06-26T03:52:16;8.05;;;7.25;;
14342;SDS011;7255;53.596;9.960;2023-06-26T03:54:42;8.20;;;7.37;;
14342;SDS011;7255;53.596;9.960;2023-06-26T03:57:09;9.27;;;7.70;;
14342;SDS011;7255;53.596;9.960;2023-06-26T03:59:37;8.45;;;7.65;;
14342;SDS011;7255;53.596;9.960;2023-06-26T04:02:03;11.02;;;7.65;;
14342;SDS011;7255;53.596;9.960;2023-06-26T04:04:30;8.27;;;7.15;;
14342;SDS011;7255;53.596;9.960;2023-06-26T04:06:56;7.97;;;7.15;;
14342;SDS011;7255;53.596;9.960;2023-06-26T04:09:24;10.02;;;8.43;;
14342;SDS011;7255;53.596;9.960;2023-06-26T04:11:50;8.45;;;7.65;;
14342;SDS011;7255;53.596;9.960;2023-06-26T04:14:16;8.05;;;7.25;;
14342;SDS011;7255;53.596;9.960;2023-06-26T04:16:44;8.55;;;7.35;;
14342;SDS011;7255;53.596;9.960;2023-06-26T04:19:10;8.88;;;7.97;;
14342;SDS011;7255;53.596;9.960;2023-06-26T04:21:37;8.50;;;7.60;;
14342;SDS011;7255;53.596;9.960;2023-06-26T04:24:04;7.55;;;6.85;;
14342;SDS011;7255;53.596;9.960;2023-06-26T04:26:30;7.45;;;6.70;;
14342;SDS011;7255;53.596;9.960;2023-06-26T04:28:57;9.57;;;8.57;;
14342;SDS011;7255;53.596;9.960;2023-06-26T04:31:23;8.38;;;7.57;;
14342;SDS011;7255;53.596;9.960;2023-06-26T04:33:51;8.10;;;7.30;;
14342;SDS011;7255;53.596;9.960;2023-06-26T04:36:19;8.10;;;7.03;;
14342;SDS011;7255;53.596;9.960;2023-06-26T04:38:46;9.18;;;8.02;;
14342;SDS011;7255;53.596;9.960;2023-06-26T04:41:13;8.02;;;7.22;;
14342;SDS011;7255;53.596;9.960;2023-06-26T04:43:39;8.55;;;7.32;;
14342;SDS011;7255;53.596;9.960;2023-06-26T04:46:06;7.72;;;6.87;;
14342;SDS011;7255;53.596;9.960;2023-06-26T04:48:32;7.32;;;6.50;;
14342;SDS011;7255;53.596;9.960;2023-06-26T04:51:00;8.10;;;7.30;;
14342;SDS011;7255;53.596;9.960;2023-06-26T04:53:26;8.63;;;7.05;;
14342;SDS011;7255;53.596;9.960;2023-06-26T04:55:53;7.85;;;6.62;;
14342;SDS011;7255;53.596;9.960;2023-06-26T04:58:19;8.43;;;7.53;;
14342;SDS011;7255;53.596;9.960;2023-06-26T05:00:46;6.95;;;6.30;;
14342;SDS011;7255;53.596;9.960;2023-06-26T05:03:13;7.18;;;6.47;;
14342;SDS011;7255;53.596;9.960;2023-06-26T05:05:41;7.50;;;6.80;;
14342;SDS011;7255;53.596;9.960;2023-06-26T05:08:16;9.73;;;6.72;;
14342;SDS011;7255;53.596;9.960;2023-06-26T05:10:43;7.95;;;7.15;;
14342;SDS011;7255;53.596;9.960;2023-06-26T05:13:09;7.45;;;6.55;;
14342;SDS011;7255;53.596;9.960;2023-06-26T05:15:36;7.55;;;6.50;;
14342;SDS011;7255;53.596;9.960;2023-06-26T05:18:02;7.20;;;6.45;;
14342;SDS011;7255;53.596;9.960;2023-06-26T05:20:29;7.90;;;6.30;;
14342;SDS011;7255;53.596;9.960;2023-06-26T05:22:55;8.00;;;7.20;;
14342;SDS011;7255;53.596;9.960;2023-06-26T05:25:23;8.55;;;6.22;;
14342;SDS011;7255;53.596;9.960;2023-06-26T05:27:51;7.72;;;6.93;;
14342;SDS011;7255;53.596;9.960;2023-06-26T05:30:18;7.03;;;6.32;;
14342;SDS011;7255;53.596;9.960;2023-06-26T05:32:45;7.62;;;6.82;;
14342;SDS011;7255;53.596;9.960;2023-06-26T05:35:13;10.63;;;8.00;;
14342;SDS011;7255;53.596;9.960;2023-06-26T05:37:40;9.93;;;6.57;;
14342;SDS011;7255;53.596;9.960;2023-06-26T05:40:08;7.07;;;5.70;;
14342;SDS011;7255;53.596;9.960;2023-06-26T05:42:36;6.80;;;6.15;;
14342;SDS011;7255;53.596;9.960;2023-06-26T05:45:03;10.82;;;6.90;;
14342;SDS011;7255;53.596;9.960;2023-06-26T05:47:30;6.85;;;5.95;;
14342;SDS011;7255;53.596;9.960;2023-06-26T05:49:56;7.20;;;6.03;;
14342;SDS011;7255;53.596;9.960;2023-06-26T05:52:23;8.13;;;6.60;;
14342;SDS011;7255;53.596;9.960;2023-06-26T05:54:50;7.12;;;6.40;;
14342;SDS011;7255;53.596;9.960;2023-06-26T05:57:17;7.72;;;5.60;;
14342;SDS011;7255;53.596;9.960;2023-06-26T05:59:45;7.20;;;5.68;;
14342;SDS011;7255;53.596;9.960;2023-06-26T06:02:12;5.65;;;5.12;;
14342;SDS011;7255;53.596;9.960;2023-06-26T06:04:38;6.68;;;5.90;;
14342;SDS011;7255;53.596;9.960;2023-06-26T06:07:05;6.40;;;5.68;;
14342;SDS011;7255;53.596;9.960;2023-06-26T06:09:31;6.37;;;5.78;;
14342;SDS011;7255;53.596;9.960;2023-06-26T06:11:58;6.22;;;5.62;;
14342;SDS011;7255;53.596;9.960;2023-06-26T06:14:24;6.35;;;5.47;;
14342;SDS011;7255;53.596;9.960;2023-06-26T06:16:52;6.70;;;5.00;;
14342;SDS011;7255;53.596;9.960;2023-06-26T06:19:18;6.68;;;5.00;;
14342;SDS011;7255;53.596;9.960;2023-06-26T06:21:44;7.57;;;5.82;;
14342;SDS011;7255;53.596;9.960;2023-06-26T06:24:11;6.97;;;5.20;;
14342;SDS011;7255;53.596;9.960;2023-06-26T06:26:37;6.97;;;5.35;;
14342;SDS011;7255;53.596;9.960;2023-06-26T06:29:03;6.70;;;5.57;;
14342;SDS011;7255;53.596;9.960;2023-06-26T06:31:30;7.80;;;6.22;;
14342;SDS011;7255;53.596;9.960;2023-06-26T06:33:58;5.70;;;5.00;;
14342;SDS011;7255;53.596;9.960;2023-06-26T06:36:24;6.43;;;5.60;;
14342;SDS011;7255;53.596;9.960;2023-06-26T06:38:51;5.82;;;4.87;;
14342;SDS011;7255;53.596;9.960;2023-06-26T06:41:17;5.35;;;4.85;;
14342;SDS011;7255;53.596;9.960;2023-06-26T06:43:43;7.82;;;5.10;;
14342;SDS011;7255;53.596;9.960;2023-06-26T06:46:10;5.97;;;5.37;;
14342;SDS011;7255;53.596;9.960;2023-06-26T06:48:36;8.82;;;6.03;;
14342;SDS011;7255;53.596;9.960;2023-06-26T06:51:04;7.03;;;4.75;;
14342;SDS011;7255;53.596;9.960;2023-06-26T06:53:30;6.32;;;5.32;;
14342;SDS011;7255;53.596;9.960;2023-06-26T06:55:57;5.43;;;4.93;;
14342;SDS011;7255;53.596;9.960;2023-06-26T06:58:23;6.03;;;4.57;;
14342;SDS011;7255;53.596;9.960;2023-06-26T07:00:49;6.53;;;5.00;;
14342;SDS011;7255;53.596;9.960;2023-06-26T07:03:16;6.20;;;5.22;;
14342;SDS011;7255;53.596;9.960;2023-06-26T07:05:43;5.97;;;5.15;;
14342;SDS011;7255;53.596;9.960;2023-06-26T07:08:11;5.25;;;4.75;;
14342;SDS011;7255;53.596;9.960;2023-06-26T07:10:38;5.47;;;4.85;;
14342;SDS011;7255;53.596;9.960;2023-06-26T07:13:04;6.50;;;5.25;;
14342;SDS011;7255;53.596;9.960;2023-06-26T07:15:30;5.43;;;4.93;;
14342;SDS011;7255;53.596;9.960;2023-06-26T07:17:57;6.62;;;5.18;;
14342;SDS011;7255;53.596;9.960;2023-06-26T07:20:23;7.35;;;5.72;;
14342;SDS011;7255;53.596;9.960;2023-06-26T07:22:49;5.80;;;5.18;;
14342;SDS011;7255;53.596;9.960;2023-06-26T07:25:17;6.22;;;5.55;;
14342;SDS011;7255;53.596;9.960;2023-06-26T07:27:44;6.30;;;5.53;;
14342;SDS011;7255;53.596;9.960;2023-06-26T07:30:10;8.00;;;5.20;;
14342;SDS011;7255;53.596;9.960;2023-06-26T07:32:37;5.25;;;4.75;;
14342;SDS011;7255;53.596;9.960;2023-06-26T07:35:05;6.05;;;5.12;;
14342;SDS011;7255;53.596;9.960;2023-06-26T07:37:32;5.20;;;4.80;;
14342;SDS011;7255;53.596;9.960;2023-06-26T07:39:58;5.45;;;4.95;;
14342;SDS011;7255;53.596;9.960;2023-06-26T07:42:25;5.97;;;5.37;;
14342;SDS011;7255;53.596;9.960;2023-06-26T07:44:52;5.15;;;4.57;;
14342;SDS011;7255;53.596;9.960;2023-06-26T07:47:18;5.85;;;5.25;;
14342;SDS011;7255;53.596;9.960;2023-06-26T07:49:44;7.35;;;5.00;;
14342;SDS011;7255;53.596;9.960;2023-06-26T07:52:11;5.82;;;4.95;;
14342;SDS011;7255;53.596;9.960;2023-06-26T07:54:40;6.65;;;5.43;;
14342;SDS011;7255;53.596;9.960;2023-06-26T07:57:06;6.90;;;5.40;;
14342;SDS011;7255;53.596;9.960;2023-06-26T07:59:35;5.87;;;5.28;;
14342;SDS011;7255;53.596;9.960;2023-06-26T08:02:01;6.82;;;5.95;;
14342;SDS011;7255;53.596;9.960;2023-06-26T08:04:28;5.53;;;4.97;;
14342;SDS011;7255;53.596;9.960;2023-06-26T08:06:57;5.32;;;4.80;;
14342;SDS011;7255;53.596;9.960;2023-06-26T08:09:24;5.65;;;5.07;;
14342;SDS011;7255;53.596;9.960;2023-06-26T08:11:52;5.25;;;4.68;;
14342;SDS011;7255;53.596;9.960;2023-06-26T08:14:19;6.30;;;5.25;;
14342;SDS011;7255;53.596;9.960;2023-06-26T08:16:47;7.62;;;5.57;;
14342;SDS011;7255;53.596;9.960;2023-06-26T08:19:14;5.75;;;5.25;;
14342;SDS011;7255;53.596;9.960;2023-06-26T08:21:41;6.65;;;5.12;;
14342;SDS011;7255;53.596;9.960;2023-06-26T08:24:08;6.60;;;5.82;;
14342;SDS011;7255;53.596;9.960;2023-06-26T08:26:35;5.15;;;4.65;;
14342;SDS011;7255;53.596;9.960;2023-06-26T08:29:02;7.80;;;5.50;;
14342;SDS011;7255;53.596;9.960;2023-06-26T08:31:32;5.93;;;5.12;;
14342;SDS011;7255;53.596;9.960;2023-06-26T08:34:00;6.25;;;5.45;;
14342;SDS011;7255;53.596;9.960;2023-06-26T08:36:26;5.97;;;4.97;;
14342;SDS011;7255;53.596;9.960;2023-06-26T08:38:53;6.43;;;5.30;;
14342;SDS011;7255;53.596;9.960;2023-06-26T08:41:19;6.55;;;4.70;;
14342;SDS011;7255;53.596;9.960;2023-06-26T08:43:45;5.70;;;4.30;;
14342;SDS011;7255;53.596;9.960;2023-06-26T08:46:12;7.62;;;4.95;;
14342;SDS011;7255;53.596;9.960;2023-06-26T08:48:40;5.37;;;4.53;;
14342;SDS011;7255;53.596;9.960;2023-06-26T08:51:12;5.32;;;4.82;;
14342;SDS011;7255;53.596;9.960;2023-06-26T08:53:45;6.30;;;5.07;;
14342;SDS011;7255;53.596;9.960;2023-06-26T08:56:15;5.32;;;4.82;;
14342;SDS011;7255;53.596;9.960;2023-06-26T08:58:46;6.15;;;5.30;;
14342;SDS011;7255;53.596;9.960;2023-06-26T09:01:12;6.25;;;5.65;;
14342;SDS011;7255;53.596;9.960;2023-06-26T09:03:39;6.97;;;5.15;;
14342;SDS011;7255;53.596;9.960;2023-06-26T09:06:06;7.93;;;6.15;;
14342;SDS011;7255;53.596;9.960;2023-06-26T09:08:34;7.62;;;5.93;;
14342;SDS011;7255;53.596;9.960;2023-06-26T09:11:01;7.90;;;6.18;;
14342;SDS011;7255;53.596;9.960;2023-06-26T09:13:28;6.60;;;5.90;;
14342;SDS011;7255;53.596;9.960;2023-06-26T09:15:56;9.70;;;6.70;;
14342;SDS011;7255;53.596;9.960;2023-06-26T09:18:22;6.70;;;6.05;;
14342;SDS011;7255;53.596;9.960;2023-06-26T09:20:49;10.77;;;7.22;;
14342;SDS011;7255;53.596;9.960;2023-06-26T09:23:16;8.48;;;6.60;;
14342;SDS011;7255;53.596;9.960;2023-06-26T09:25:44;7.97;;;7.18;;
14342;SDS011;7255;53.596;9.960;2023-06-26T09:28:13;8.20;;;7.40;;
14342;SDS011;7255;53.596;9.960;2023-06-26T09:30:40;9.73;;;7.75;;
14342;SDS011;7255;53.596;9.960;2023-06-26T09:33:13;8.40;;;7.45;;
14342;SDS011;7255;53.596;9.960;2023-06-26T09:35:40;8.30;;;7.47;;
14342;SDS011;7255;53.596;9.960;2023-06-26T09:38:07;8.05;;;6.50;;
14342;SDS011;7255;53.596;9.960;2023-06-26T09:40:33;7.65;;;6.85;;
14342;SDS011;7255;53.596;9.960;2023-06-26T09:43:03;10.05;;;7.12;;
14342;SDS011;7255;53.596;9.960;2023-06-26T09:45:30;7.53;;;6.60;;
14342;SDS011;7255;53.596;9.960;2023-06-26T09:47:59;7.80;;;6.50;;
14342;SDS011;7255;53.596;9.960;2023-06-26T09:50:26;7.43;;;6.68;;
14342;SDS011;7255;53.596;9.960;2023-06-26T09:52:52;8.18;;;7.32;;
14342;SDS011;7255;53.596;9.960;2023-06-26T09:55:19;12.55;;;8.38;;
14342;SDS011;7255;53.596;9.960;2023-06-26T09:57:46;11.90;;;8.43;;
14342;SDS011;7255;53.596;9.960;2023-06-26T10:00:15;9.13;;;8.15;;
14342;SDS011;7255;53.596;9.960;2023-06-26T10:02:42;8.15;;;7.32;;
14342;SDS011;7255;53.596;9.960;2023-06-26T10:05:08;9.43;;;8.43;;
14342;SDS011;7255;53.596;9.960;2023-06-26T10:07:35;12.05;;;8.93;;
14342;SDS011;7255;53.596;9.960;2023-06-26T10:10:03;10.15;;;9.05;;
14342;SDS011;7255;53.596;9.960;2023-06-26T10:12:31;11.20;;;9.07;;
14342;SDS011;7255;53.596;9.960;2023-06-26T10:14:58;10.52;;;9.32;;
14342;SDS011;7255;53.596;9.960;2023-06-26T10:17:27;11.52;;;8.95;;
14342;SDS011;7255;53.596;9.960;2023-06-26T10:19:56;10.95;;;9.20;;
14342;SDS011;7255;53.596;9.960;2023-06-26T10:22:29;8.57;;;7.68;;
14342;SDS011;7255;53.596;9.960;2023-06-26T10:24:59;6.80;;;6.10;;
14342;SDS011;7255;53.596;9.960;2023-06-26T10:27:28;5.93;;;4.95;;
14342;SDS011;7255;53.596;9.960;2023-06-26T10:30:00;5.45;;;4.95;;
14342;SDS011;7255;53.596;9.960;2023-06-26T10:32:32;7.80;;;4.90;;
14342;SDS011;7255;53.596;9.960;2023-06-26T10:34:59;5.40;;;4.90;;
14342;SDS011;7255;53.596;9.960;2023-06-26T10:37:40;6.60;;;5.47;;
14342;SDS011;7255;53.596;9.960;2023-06-26T10:40:07;6.97;;;4.87;;
14342;SDS011;7255;53.596;9.960;2023-06-26T10:42:34;6.40;;;5.57;;
14342;SDS011;7255;53.596;9.960;2023-06-26T10:45:08;7.43;;;5.35;;
14342;SDS011;7255;53.596;9.960;2023-06-26T10:47:37;6.05;;;4.87;;
14342;SDS011;7255;53.596;9.960;2023-06-26T10:50:16;6.18;;;5.47;;
14342;SDS011;7255;53.596;9.960;2023-06-26T10:52:43;6.50;;;5.37;;
14342;SDS011;7255;53.596;9.960;2023-06-26T10:55:10;7.72;;;6.90;;
14342;SDS011;7255;53.596;9.960;2023-06-26T10:57:36;7.75;;;7.05;;
14342;SDS011;7255;53.596;9.960;2023-06-26T11:00:09;8.73;;;7.18;;
14342;SDS011;7255;53.596;9.960;2023-06-26T11:02:48;9.50;;;8.35;;
14342;SDS011;7255;53.596;9.960;2023-06-26T11:05:23;8.65;;;7.75;;
14342;SDS011;7255;53.596;9.960;2023-06-26T11:08:03;9.50;;;8.50;;
14342;SDS011;7255;53.596;9.960;2023-06-26T11:10:40;11.93;;;8.88;;
14342;SDS011;7255;53.596;9.960;2023-06-26T11:13:14;8.90;;;8.00;;
14342;SDS011;7255;53.596;9.960;2023-06-26T11:15:43;11.30;;;7.22;;
14342;SDS011;7255;53.596;9.960;2023-06-26T11:18:10;11.20;;;7.60;;
14342;SDS011;7255;53.596;9.960;2023-06-26T11:20:38;9.90;;;6.72;;
14342;SDS011;7255;53.596;9.960;2023-06-26T11:23:05;7.10;;;5.82;;
14342;SDS011;7255;53.596;9.960;2023-06-26T11:25:33;7.68;;;5.60;;
14342;SDS011;7255;53.596;9.960;2023-06-26T11:28:01;10.45;;;5.30;;
14342;SDS011;7255;53.596;9.960;2023-06-26T11:30:27;8.57;;;5.18;;
14342;SDS011;7255;53.596;9.960;2023-06-26T11:33:01;9.25;;;4.80;;
14342;SDS011;7255;53.596;9.960;2023-06-26T11:35:30;9.35;;;5.20;;
14342;SDS011;7255;53.596;9.960;2023-06-26T11:37:56;6.18;;;4.28;;
14342;SDS011;7255;53.596;9.960;2023-06-26T11:40:25;9.10;;;5.15;;
14342;SDS011;7255;53.596;9.960;2023-06-26T11:42:55;7.37;;;4.32;;
14342;SDS011;7255;53.596;9.960;2023-06-26T11:45:21;4.85;;;3.97;;
14342;SDS011;7255;53.596;9.960;2023-06-26T11:47:48;7.78;;;3.42;;
14342;SDS011;7255;53.596;9.960;2023-06-26T11:50:15;6.72;;;3.37;;
14342;SDS011;7255;53.596;9.960;2023-06-26T11:52:43;9.15;;;2.78;;
14342;SDS011;7255;53.596;9.960;2023-06-26T11:55:10;5.97;;;2.42;;
14342;SDS011;7255;53.596;9.960;2023-06-26T11:57:37;6.70;;;2.70;;
14342;SDS011;7255;53.596;9.960;2023-06-26T12:00:10;5.80;;;2.67;;
14342;SDS011;7255;53.596;9.960;2023-06-26T12:02:37;6.78;;;2.20;;
14342;SDS011;7255;53.596;9.960;2023-06-26T12:05:04;6.53;;;2.95;;
14342;SDS011;7255;53.596;9.960;2023-06-26T12:07:32;7.07;;;1.90;;
14342;SDS011;7255;53.596;9.960;2023-06-26T12:10:01;9.35;;;2.75;;
14342;SDS011;7255;53.596;9.960;2023-06-26T12:12:28;5.68;;;2.42;;
14342;SDS011;7255;53.596;9.960;2023-06-26T12:14:54;5.35;;;2.28;;
14342;SDS011;7255;53.596;9.960;2023-06-26T12:17:22;3.10;;;1.80;;
14342;SDS011;7255;53.596;9.960;2023-06-26T12:19:50;8.45;;;2.42;;
14342;SDS011;7255;53.596;9.960;2023-06-26T12:22:16;8.88;;;2.92;;
14342;SDS011;7255;53.596;9.960;2023-06-26T12:24:44;5.12;;;2.10;;
14342;SDS011;7255;53.596;9.960;2023-06-26T12:27:13;3.83;;;1.92;;
14342;SDS011;7255;53.596;9.960;2023-06-26T12:29:42;7.20;;;2.12;;
14342;SDS011;7255;53.596;9.960;2023-06-26T12:32:11;11.18;;;2.42;;
14342;SDS011;7255;53.596;9.960;2023-06-26T12:34:39;7.60;;;2.30;;
14342;SDS011;7255;53.596;9.960;2023-06-26T12:37:06;5.57;;;2.35;;
14342;SDS011;7255;53.596;9.960;2023-06-26T12:39:46;4.45;;;2.00;;
14342;SDS011;7255;53.596;9.960;2023-06-26T12:42:16;6.82;;;2.10;;
14342;SDS011;7255;53.596;9.960;2023-06-26T12:44:43;3.72;;;1.87;;
14342;SDS011;7255;53.596;9.960;2023-06-26T12:47:10;2.30;;;2.08;;
14342;SDS011;7255;53.596;9.960;2023-06-26T12:49:38;3.90;;;1.60;;
14342;SDS011;7255;53.596;9.960;2023-06-26T12:52:06;4.12;;;1.70;;
14342;SDS011;7255;53.596;9.960;2023-06-26T12:54:34;4.00;;;2.28;;
14342;SDS011;7255;53.596;9.960;2023-06-26T12:57:00;3.78;;;1.90;;
14342;SDS011;7255;53.596;9.960;2023-06-26T12:59:30;4.15;;;1.83;;
14342;SDS011;7255;53.596;9.960;2023-06-26T13:01:57;5.50;;;1.55;;
14342;SDS011;7255;53.596;9.960;2023-06-26T13:04:23;7.78;;;1.85;;
14342;SDS011;7255;53.596;9.960;2023-06-26T13:06:49;2.42;;;1.65;;
14342;SDS011;7255;53.596;9.960;2023-06-26T13:09:16;4.95;;;2.08;;
14342;SDS011;7255;53.596;9.960;2023-06-26T13:11:43;2.28;;;1.62;;
14342;SDS011;7255;53.596;9.960;2023-06-26T13:14:09;4.37;;;1.60;;
14342;SDS011;7255;53.596;9.960;2023-06-26T13:16:37;4.30;;;1.60;;
14342;SDS011;7255;53.596;9.960;2023-06-26T13:19:04;2.08;;;1.87;;
14342;SDS011;7255;53.596;9.960;2023-06-26T13:21:30;2.08;;;1.50;;
14342;SDS011;7255;53.596;9.960;2023-06-26T13:23:57;5.37;;;1.73;;
14342;SDS011;7255;53.596;9.960;2023-06-26T13:26:24;4.30;;;1.80;;
14342;SDS011;7255;53.596;9.960;2023-06-26T13:28:51;4.62;;;1.70;;
14342;SDS011;7255;53.596;9.960;2023-06-26T13:31:18;4.20;;;1.50;;
14342;SDS011;7255;53.596;9.960;2023-06-26T13:33:46;3.22;;;1.58;;
14342;SDS011;7255;53.596;9.960;2023-06-26T13:36:14;2.95;;;1.55;;
14342;SDS011;7255;53.596;9.960;2023-06-26T13:38:40;3.42;;;1.48;;
14342;SDS011;7255;53.596;9.960;2023-06-26T13:41:06;2.35;;;1.20;;
14342;SDS011;7255;53.596;9.960;2023-06-26T13:43:33;8.45;;;3.10;;
14342;SDS011;7255;53.596;9.960;2023-06-26T13:45:59;3.60;;;1.48;;
14342;SDS011;7255;53.596;9.960;2023-06-26T13:48:26;2.60;;;2.25;;
14342;SDS011;7255;53.596;9.960;2023-06-26T13:50:54;4.43;;;1.45;;
14342;SDS011;7255;53.596;9.960;2023-06-26T13:53:21;2.50;;;1.27;;
14342;SDS011;7255;53.596;9.960;2023-06-26T13:55:47;3.28;;;1.40;;
14342;SDS011;7255;53.596;9.960;2023-06-26T13:58:14;4.62;;;1.30;;
14342;SDS011;7255;53.596;9.960;2023-06-26T14:00:40;3.12;;;1.42;;
14342;SDS011;7255;53.596;9.960;2023-06-26T14:03:09;3.75;;;1.25;;
14342;SDS011;7255;53.596;9.960;2023-06-26T14:05:36;2.10;;;1.30;;
14342;SDS011;7255;53.596;9.960;2023-06-26T14:08:04;2.37;;;1.33;;
14342;SDS011;7255;53.596;9.960;2023-06-26T14:10:33;3.20;;;1.55;;
14342;SDS011;7255;53.596;9.960;2023-06-26T14:13:00;2.75;;;1.40;;
14342;SDS011;7255;53.596;9.960;2023-06-26T14:15:26;1.75;;;1.10;;
14342;SDS011;7255;53.596;9.960;2023-06-26T14:17:52;2.83;;;1.60;;
14342;SDS011;7255;53.596;9.960;2023-06-26T14:20:20;3.50;;;1.45;;
14342;SDS011;7255;53.596;9.960;2023-06-26T14:22:47;3.75;;;1.48;;
14342;SDS011;7255;53.596;9.960;2023-06-26T14:25:16;1.98;;;1.20;;
14342;SDS011;7255;53.596;9.960;2023-06-26T14:27:42;1.73;;;1.20;;
14342;SDS011;7255;53.596;9.960;2023-06-26T14:30:09;3.00;;;1.30;;
14342;SDS011;7255;53.596;9.960;2023-06-26T14:32:36;2.03;;;1.17;;
14342;SDS011;7255;53.596;9.960;2023-06-26T14:35:03;2.50;;;1.48;;
14342;SDS011;7255;53.596;9.960;2023-06-26T14:37:30;3.58;;;1.80;;
14342;SDS011;7255;53.596;9.960;2023-06-26T14:39:56;3.50;;;1.40;;
14342;SDS011;7255;53.596;9.960;2023-06-26T14:42:25;3.60;;;1.65;;
14342;SDS011;7255;53.596;9.960;2023-06-26T14:44:51;3.45;;;1.40;;
14342;SDS011;7255;53.596;9.960;2023-06-26T14:47:17;2.20;;;1.48;;
14342;SDS011;7255;53.596;9.960;2023-06-26T14:49:44;4.78;;;1.33;;
14342;SDS011;7255;53.596;9.960;2023-06-26T14:52:10;4.35;;;1.27;;
14342;SDS011;7255;53.596;9.960;2023-06-26T14:54:36;1.17;;;1.10;;
14342;SDS011;7255;53.596;9.960;2023-06-26T14:57:05;1.95;;;1.05;;
14342;SDS011;7255;53.596;9.960;2023-06-26T14:59:33;3.35;;;1.20;;